sensor_id;sensor_type;location;lat;lon;timestamp;P1;durP1;ratioP1;P2;durP2;ratioP2
1475;SDS011;730;48.870;12.542;2023-11-19T00:00:05;12.13;;;10.20;;
1475;SDS011;730;48.870;12.542;2023-11-19T00:02:40;13.50;;;12.13;;
1475;SDS011;730;48.870;12.542;2023-11-19T00:05:06;11.20;;;9.98;;
1475;SDS011;730;48.870;12.542;2023-11-19T00:07:37;12.88;;;10.25;;
1475;SDS011;730;48.870;12.542;2023-11-19T00:10:15;10.45;;;9.20;;
1475;SDS011;730;48.870;12.542;2023-11-19T00:12:45;10.77;;;9.68;;
1475;SDS011;730;48.870;12.542;2023-11-19T00:15:12;10.98;;;9.55;;
1475;SDS011;730;48.870;12.542;2023-11-19T00:17:40;12.43;;;10.15;;
1475;SDS011;730;48.870;12.542;2023-11-19T00:20:11;11.18;;;9.98;;
1475;SDS011;730;48.870;12.542;2023-11-19T00:22:37;12.43;;;10.93;;
1475;SDS011;730;48.870;12.542;2023-11-19T00:25:04;10.68;;;9.57;;
1475;SDS011;730;48.870;12.542;2023-11-19T00:27:31;13.60;;;10.20;;
1475;SDS011;730;48.870;12.542;2023-11-19T00:29:57;13.65;;;10.68;;
1475;SDS011;730;48.870;12.542;2023-11-19T00:32:23;10.73;;;9.35;;
1475;SDS011;730;48.870;12.542;2023-11-19T00:34:49;11.98;;;10.43;;
1475;SDS011;730;48.870;12.542;2023-11-19T00:37:16;11.27;;;9.90;;
1475;SDS011;730;48.870;12.542;2023-11-19T00:39:42;10.52;;;9.43;;
1475;SDS011;730;48.870;12.542;2023-11-19T00:42:11;10.63;;;9.60;;
1475;SDS011;730;48.870;12.542;2023-11-19T00:44:37;10.63;;;9.60;;
1475;SDS011;730;48.870;12.542;2023-11-19T00:47:03;10.40;;;8.88;;
1475;SDS011;730;48.870;12.542;2023-11-19T00:49:30;10.85;;;9.10;;
1475;SDS011;730;48.870;12.542;2023-11-19T00:51:58;10.70;;;9.20;;
1475;SDS011;730;48.870;12.542;2023-11-19T00:54:24;9.02;;;8.20;;
1475;SDS011;730;48.870;12.542;2023-11-19T00:56:51;11.63;;;9.52;;
1475;SDS011;730;48.870;12.542;2023-11-19T00:59:18;10.77;;;8.60;;
1475;SDS011;730;48.870;12.542;2023-11-19T01:01:44;10.73;;;9.07;;
1475;SDS011;730;48.870;12.542;2023-11-19T01:04:10;10.50;;;9.32;;
1475;SDS011;730;48.870;12.542;2023-11-19T01:06:36;11.05;;;9.23;;
1475;SDS011;730;48.870;12.542;2023-11-19T01:09:02;10.80;;;9.43;;
1475;SDS011;730;48.870;12.542;2023-11-19T01:11:28;10.00;;;8.95;;
1475;SDS011;730;48.870;12.542;2023-11-19T01:13:54;10.10;;;8.70;;
1475;SDS011;730;48.870;12.542;2023-11-19T01:16:21;8.43;;;7.63;;
1475;SDS011;730;48.870;12.542;2023-11-19T01:18:47;10.50;;;9.27;;
1475;SDS011;730;48.870;12.542;2023-11-19T01:21:14;10.68;;;9.50;;
1475;SDS011;730;48.870;12.542;2023-11-19T01:23:41;8.85;;;7.93;;
1475;SDS011;730;48.870;12.542;2023-11-19T01:26:11;9.65;;;8.73;;
1475;SDS011;730;48.870;12.542;2023-11-19T01:28:38;10.32;;;8.77;;
1475;SDS011;730;48.870;12.542;2023-11-19T01:31:11;10.00;;;8.77;;
1475;SDS011;730;48.870;12.542;2023-11-19T01:33:38;10.40;;;9.00;;
1475;SDS011;730;48.870;12.542;2023-11-19T01:36:05;10.45;;;9.38;;
1475;SDS011;730;48.870;12.542;2023-11-19T01:38:32;10.30;;;9.25;;
1475;SDS011;730;48.870;12.542;2023-11-19T01:40:58;9.30;;;8.30;;
1475;SDS011;730;48.870;12.542;2023-11-19T01:43:37;8.45;;;7.55;;
1475;SDS011;730;48.870;12.542;2023-11-19T01:46:04;9.45;;;8.45;;
1475;SDS011;730;48.870;12.542;2023-11-19T01:48:31;9.48;;;7.35;;
1475;SDS011;730;48.870;12.542;2023-11-19T01:50:59;9.57;;;8.27;;
1475;SDS011;730;48.870;12.542;2023-11-19T01:53:26;9.32;;;8.32;;
1475;SDS011;730;48.870;12.542;2023-11-19T01:55:53;10.90;;;8.82;;
1475;SDS011;730;48.870;12.542;2023-11-19T01:58:19;8.73;;;7.82;;
1475;SDS011;730;48.870;12.542;2023-11-19T02:00:45;9.20;;;8.20;;
1475;SDS011;730;48.870;12.542;2023-11-19T02:03:11;9.27;;;8.05;;
1475;SDS011;730;48.870;12.542;2023-11-19T02:05:38;9.35;;;8.35;;
1475;SDS011;730;48.870;12.542;2023-11-19T02:08:05;8.88;;;7.75;;
1475;SDS011;730;48.870;12.542;2023-11-19T02:10:31;13.02;;;9.68;;
1475;SDS011;730;48.870;12.542;2023-11-19T02:12:57;9.60;;;8.30;;
1475;SDS011;730;48.870;12.542;2023-11-19T02:15:24;9.13;;;7.65;;
1475;SDS011;730;48.870;12.542;2023-11-19T02:17:50;9.00;;;8.10;;
1475;SDS011;730;48.870;12.542;2023-11-19T02:20:17;8.95;;;7.75;;
1475;SDS011;730;48.870;12.542;2023-11-19T02:22:46;8.80;;;7.90;;
1475;SDS011;730;48.870;12.542;2023-11-19T02:25:20;8.52;;;7.63;;
1475;SDS011;730;48.870;12.542;2023-11-19T02:27:58;8.93;;;7.57;;
1475;SDS011;730;48.870;12.542;2023-11-19T02:30:26;10.43;;;9.20;;
1475;SDS011;730;48.870;12.542;2023-11-19T02:32:54;9.32;;;8.35;;
1475;SDS011;730;48.870;12.542;2023-11-19T02:35:23;9.23;;;7.32;;
1475;SDS011;730;48.870;12.542;2023-11-19T02:37:50;9.88;;;8.32;;
1475;SDS011;730;48.870;12.542;2023-11-19T02:40:16;10.30;;;7.80;;
1475;SDS011;730;48.870;12.542;2023-11-19T02:42:42;9.10;;;7.13;;
1475;SDS011;730;48.870;12.542;2023-11-19T02:45:13;8.50;;;6.70;;
1475;SDS011;730;48.870;12.542;2023-11-19T02:47:40;7.72;;;6.57;;
1475;SDS011;730;48.870;12.542;2023-11-19T02:50:18;8.50;;;7.53;;
1475;SDS011;730;48.870;12.542;2023-11-19T02:52:51;8.27;;;7.20;;
1475;SDS011;730;48.870;12.542;2023-11-19T02:55:18;7.10;;;6.13;;
1475;SDS011;730;48.870;12.542;2023-11-19T02:57:45;7.13;;;6.43;;
1475;SDS011;730;48.870;12.542;2023-11-19T03:00:15;6.60;;;6.00;;
1475;SDS011;730;48.870;12.542;2023-11-19T03:02:42;7.05;;;6.18;;
1475;SDS011;730;48.870;12.542;2023-11-19T03:05:12;8.23;;;7.35;;
1475;SDS011;730;48.870;12.542;2023-11-19T03:07:43;7.55;;;6.45;;
1475;SDS011;730;48.870;12.542;2023-11-19T03:10:10;7.32;;;6.28;;
1475;SDS011;730;48.870;12.542;2023-11-19T03:12:39;8.18;;;6.85;;
1475;SDS011;730;48.870;12.542;2023-11-19T03:15:06;7.68;;;6.88;;
1475;SDS011;730;48.870;12.542;2023-11-19T03:17:36;7.65;;;6.65;;
1475;SDS011;730;48.870;12.542;2023-11-19T03:20:04;8.38;;;6.63;;
1475;SDS011;730;48.870;12.542;2023-11-19T03:22:32;9.60;;;7.18;;
1475;SDS011;730;48.870;12.542;2023-11-19T03:25:01;6.93;;;5.85;;
1475;SDS011;730;48.870;12.542;2023-11-19T03:27:27;7.68;;;6.57;;
1475;SDS011;730;48.870;12.542;2023-11-19T03:29:53;8.52;;;6.65;;
1475;SDS011;730;48.870;12.542;2023-11-19T03:32:19;7.43;;;6.13;;
1475;SDS011;730;48.870;12.542;2023-11-19T03:34:45;8.30;;;6.72;;
1475;SDS011;730;48.870;12.542;2023-11-19T03:37:21;5.53;;;4.97;;
1475;SDS011;730;48.870;12.542;2023-11-19T03:39:47;8.23;;;6.18;;
1475;SDS011;730;48.870;12.542;2023-11-19T03:42:13;6.90;;;6.00;;
1475;SDS011;730;48.870;12.542;2023-11-19T03:44:39;6.72;;;6.03;;
1475;SDS011;730;48.870;12.542;2023-11-19T03:47:05;6.65;;;5.95;;
1475;SDS011;730;48.870;12.542;2023-11-19T03:49:31;6.55;;;5.85;;
1475;SDS011;730;48.870;12.542;2023-11-19T03:51:57;6.13;;;5.25;;
1475;SDS011;730;48.870;12.542;2023-11-19T03:54:23;6.03;;;5.43;;
1475;SDS011;730;48.870;12.542;2023-11-19T03:56:50;5.97;;;5.38;;
1475;SDS011;730;48.870;12.542;2023-11-19T03:59:20;7.40;;;5.38;;
1475;SDS011;730;48.870;12.542;2023-11-19T04:01:46;5.70;;;5.10;;
1475;SDS011;730;48.870;12.542;2023-11-19T04:04:12;5.78;;;4.70;;
1475;SDS011;730;48.870;12.542;2023-11-19T04:06:39;5.68;;;5.05;;
1475;SDS011;730;48.870;12.542;2023-11-19T04:09:05;5.45;;;4.80;;
1475;SDS011;730;48.870;12.542;2023-11-19T04:11:33;5.85;;;5.35;;
1475;SDS011;730;48.870;12.542;2023-11-19T04:13:59;5.88;;;5.28;;
1475;SDS011;730;48.870;12.542;2023-11-19T04:16:28;5.45;;;4.63;;
1475;SDS011;730;48.870;12.542;2023-11-19T04:18:56;5.85;;;5.25;;
1475;SDS011;730;48.870;12.542;2023-11-19T04:21:22;4.88;;;4.25;;
1475;SDS011;730;48.870;12.542;2023-11-19T04:23:49;4.93;;;4.53;;
1475;SDS011;730;48.870;12.542;2023-11-19T04:26:15;5.53;;;4.28;;
1475;SDS011;730;48.870;12.542;2023-11-19T04:28:41;4.80;;;4.30;;
1475;SDS011;730;48.870;12.542;2023-11-19T04:31:07;5.05;;;4.40;;
1475;SDS011;730;48.870;12.542;2023-11-19T04:33:34;4.40;;;4.05;;
1475;SDS011;730;48.870;12.542;2023-11-19T04:36:01;5.40;;;4.90;;
1475;SDS011;730;48.870;12.542;2023-11-19T04:38:28;4.97;;;4.15;;
1475;SDS011;730;48.870;12.542;2023-11-19T04:40:54;4.45;;;4.03;;
1475;SDS011;730;48.870;12.542;2023-11-19T04:43:22;5.85;;;4.65;;
1475;SDS011;730;48.870;12.542;2023-11-19T04:45:48;4.45;;;3.90;;
1475;SDS011;730;48.870;12.542;2023-11-19T04:48:15;4.70;;;4.30;;
1475;SDS011;730;48.870;12.542;2023-11-19T04:50:41;4.93;;;4.43;;
1475;SDS011;730;48.870;12.542;2023-11-19T04:53:07;4.65;;;3.83;;
1475;SDS011;730;48.870;12.542;2023-11-19T04:55:33;4.15;;;3.75;;
1475;SDS011;730;48.870;12.542;2023-11-19T04:57:59;5.82;;;4.50;;
1475;SDS011;730;48.870;12.542;2023-11-19T05:00:25;4.15;;;3.75;;
1475;SDS011;730;48.870;12.542;2023-11-19T05:02:51;4.38;;;3.97;;
1475;SDS011;730;48.870;12.542;2023-11-19T05:05:22;4.45;;;4.05;;
1475;SDS011;730;48.870;12.542;2023-11-19T05:07:48;4.90;;;4.15;;
1475;SDS011;730;48.870;12.542;2023-11-19T05:10:14;4.85;;;4.32;;
1475;SDS011;730;48.870;12.542;2023-11-19T05:12:40;4.60;;;3.90;;
1475;SDS011;730;48.870;12.542;2023-11-19T05:15:09;4.68;;;4.25;;
1475;SDS011;730;48.870;12.542;2023-11-19T05:17:37;5.57;;;4.32;;
1475;SDS011;730;48.870;12.542;2023-11-19T05:20:04;5.85;;;5.30;;
1475;SDS011;730;48.870;12.542;2023-11-19T05:22:41;5.20;;;4.07;;
1475;SDS011;730;48.870;12.542;2023-11-19T05:25:08;5.25;;;4.28;;
1475;SDS011;730;48.870;12.542;2023-11-19T05:27:34;5.65;;;5.07;;
1475;SDS011;730;48.870;12.542;2023-11-19T05:30:02;4.90;;;4.25;;
1475;SDS011;730;48.870;12.542;2023-11-19T05:32:36;6.07;;;5.05;;
1475;SDS011;730;48.870;12.542;2023-11-19T05:35:02;5.13;;;4.70;;
1475;SDS011;730;48.870;12.542;2023-11-19T05:37:28;4.00;;;3.55;;
1475;SDS011;730;48.870;12.542;2023-11-19T05:39:54;6.00;;;5.40;;
1475;SDS011;730;48.870;12.542;2023-11-19T05:42:21;6.25;;;4.90;;
1475;SDS011;730;48.870;12.542;2023-11-19T05:44:47;5.57;;;5.07;;
1475;SDS011;730;48.870;12.542;2023-11-19T05:47:13;4.68;;;3.75;;
1475;SDS011;730;48.870;12.542;2023-11-19T05:49:39;4.18;;;3.78;;
1475;SDS011;730;48.870;12.542;2023-11-19T05:52:05;5.45;;;4.68;;
1475;SDS011;730;48.870;12.542;2023-11-19T05:54:33;4.47;;;4.07;;
1475;SDS011;730;48.870;12.542;2023-11-19T05:57:04;5.15;;;4.65;;
1475;SDS011;730;48.870;12.542;2023-11-19T05:59:30;6.10;;;4.90;;
1475;SDS011;730;48.870;12.542;2023-11-19T06:01:58;5.30;;;4.80;;
1475;SDS011;730;48.870;12.542;2023-11-19T06:04:24;4.45;;;4.00;;
1475;SDS011;730;48.870;12.542;2023-11-19T06:06:50;5.07;;;4.40;;
1475;SDS011;730;48.870;12.542;2023-11-19T06:09:16;5.85;;;5.22;;
1475;SDS011;730;48.870;12.542;2023-11-19T06:11:44;4.75;;;4.22;;
1475;SDS011;730;48.870;12.542;2023-11-19T06:14:10;6.75;;;5.53;;
1475;SDS011;730;48.870;12.542;2023-11-19T06:16:36;5.00;;;4.32;;
1475;SDS011;730;48.870;12.542;2023-11-19T06:19:05;5.13;;;4.63;;
1475;SDS011;730;48.870;12.542;2023-11-19T06:21:31;5.55;;;5.00;;
1475;SDS011;730;48.870;12.542;2023-11-19T06:23:57;5.47;;;4.65;;
1475;SDS011;730;48.870;12.542;2023-11-19T06:26:23;6.82;;;5.18;;
1475;SDS011;730;48.870;12.542;2023-11-19T06:28:49;5.78;;;4.90;;
1475;SDS011;730;48.870;12.542;2023-11-19T06:31:15;6.25;;;5.32;;
1475;SDS011;730;48.870;12.542;2023-11-19T06:33:42;5.43;;;4.88;;
1475;SDS011;730;48.870;12.542;2023-11-19T06:36:08;6.20;;;5.13;;
1475;SDS011;730;48.870;12.542;2023-11-19T06:38:35;7.18;;;5.30;;
1475;SDS011;730;48.870;12.542;2023-11-19T06:41:01;6.28;;;5.55;;
1475;SDS011;730;48.870;12.542;2023-11-19T06:43:29;6.80;;;5.50;;
1475;SDS011;730;48.870;12.542;2023-11-19T06:45:55;6.43;;;5.30;;
1475;SDS011;730;48.870;12.542;2023-11-19T06:48:23;6.65;;;5.15;;
1475;SDS011;730;48.870;12.542;2023-11-19T06:50:49;6.78;;;5.93;;
1475;SDS011;730;48.870;12.542;2023-11-19T06:53:15;6.70;;;5.88;;
1475;SDS011;730;48.870;12.542;2023-11-19T06:55:41;6.32;;;5.72;;
1475;SDS011;730;48.870;12.542;2023-11-19T06:58:07;6.35;;;5.75;;
1475;SDS011;730;48.870;12.542;2023-11-19T07:00:33;6.53;;;5.78;;
1475;SDS011;730;48.870;12.542;2023-11-19T07:03:01;6.68;;;5.55;;
1475;SDS011;730;48.870;12.542;2023-11-19T07:05:27;8.27;;;6.53;;
1475;SDS011;730;48.870;12.542;2023-11-19T07:07:53;6.60;;;5.90;;
1475;SDS011;730;48.870;12.542;2023-11-19T07:10:20;7.55;;;6.00;;
1475;SDS011;730;48.870;12.542;2023-11-19T07:12:46;6.05;;;5.32;;
1475;SDS011;730;48.870;12.542;2023-11-19T07:15:12;5.78;;;5.18;;
1475;SDS011;730;48.870;12.542;2023-11-19T07:17:38;4.93;;;4.47;;
1475;SDS011;730;48.870;12.542;2023-11-19T07:20:06;5.40;;;4.90;;
1475;SDS011;730;48.870;12.542;2023-11-19T07:22:32;5.60;;;5.10;;
1475;SDS011;730;48.870;12.542;2023-11-19T07:24:58;5.85;;;5.22;;
1475;SDS011;730;48.870;12.542;2023-11-19T07:27:24;5.63;;;5.13;;
1475;SDS011;730;48.870;12.542;2023-11-19T07:29:50;5.82;;;5.22;;
1475;SDS011;730;48.870;12.542;2023-11-19T07:32:16;5.13;;;4.63;;
1475;SDS011;730;48.870;12.542;2023-11-19T07:34:42;5.20;;;4.32;;
1475;SDS011;730;48.870;12.542;2023-11-19T07:37:08;5.43;;;4.93;;
1475;SDS011;730;48.870;12.542;2023-11-19T07:39:34;5.65;;;5.03;;
1475;SDS011;730;48.870;12.542;2023-11-19T07:42:01;4.90;;;4.50;;
1475;SDS011;730;48.870;12.542;2023-11-19T07:44:27;6.25;;;5.20;;
1475;SDS011;730;48.870;12.542;2023-11-19T07:46:53;6.40;;;5.63;;
1475;SDS011;730;48.870;12.542;2023-11-19T07:49:19;5.55;;;4.93;;
1475;SDS011;730;48.870;12.542;2023-11-19T07:51:45;5.95;;;4.95;;
1475;SDS011;730;48.870;12.542;2023-11-19T07:54:11;5.03;;;4.30;;
1475;SDS011;730;48.870;12.542;2023-11-19T07:56:44;5.30;;;4.80;;
1475;SDS011;730;48.870;12.542;2023-11-19T07:59:10;5.97;;;5.38;;
1475;SDS011;730;48.870;12.542;2023-11-19T08:01:36;5.72;;;5.20;;
1475;SDS011;730;48.870;12.542;2023-11-19T08:04:02;4.95;;;4.45;;
1475;SDS011;730;48.870;12.542;2023-11-19T08:06:28;5.80;;;5.13;;
1475;SDS011;730;48.870;12.542;2023-11-19T08:09:01;6.07;;;5.45;;
1475;SDS011;730;48.870;12.542;2023-11-19T08:11:27;6.30;;;5.00;;
1475;SDS011;730;48.870;12.542;2023-11-19T08:13:53;5.63;;;5.03;;
1475;SDS011;730;48.870;12.542;2023-11-19T08:16:19;5.70;;;5.10;;
1475;SDS011;730;48.870;12.542;2023-11-19T08:18:45;7.50;;;6.22;;
1475;SDS011;730;48.870;12.542;2023-11-19T08:21:11;4.65;;;3.97;;
1475;SDS011;730;48.870;12.542;2023-11-19T08:23:38;5.72;;;4.95;;
1475;SDS011;730;48.870;12.542;2023-11-19T08:26:04;6.80;;;5.80;;
1475;SDS011;730;48.870;12.542;2023-11-19T08:28:30;6.40;;;5.38;;
1475;SDS011;730;48.870;12.542;2023-11-19T08:30:56;5.20;;;4.70;;
1475;SDS011;730;48.870;12.542;2023-11-19T08:33:24;6.32;;;5.32;;
1475;SDS011;730;48.870;12.542;2023-11-19T08:35:50;4.70;;;4.30;;
1475;SDS011;730;48.870;12.542;2023-11-19T08:38:16;5.65;;;5.00;;
1475;SDS011;730;48.870;12.542;2023-11-19T08:40:42;5.18;;;4.45;;
1475;SDS011;730;48.870;12.542;2023-11-19T08:43:08;5.68;;;5.07;;
1475;SDS011;730;48.870;12.542;2023-11-19T08:45:34;6.32;;;5.38;;
1475;SDS011;730;48.870;12.542;2023-11-19T08:48:00;5.65;;;4.63;;
1475;SDS011;730;48.870;12.542;2023-11-19T08:50:26;5.95;;;5.20;;
1475;SDS011;730;48.870;12.542;2023-11-19T08:52:52;6.47;;;5.28;;
1475;SDS011;730;48.870;12.542;2023-11-19T08:55:18;6.25;;;5.18;;
1475;SDS011;730;48.870;12.542;2023-11-19T08:57:44;5.30;;;4.80;;
1475;SDS011;730;48.870;12.542;2023-11-19T09:00:11;5.60;;;5.10;;
1475;SDS011;730;48.870;12.542;2023-11-19T09:02:39;5.97;;;5.25;;
1475;SDS011;730;48.870;12.542;2023-11-19T09:05:05;5.85;;;5.07;;
1475;SDS011;730;48.870;12.542;2023-11-19T09:07:34;5.10;;;4.60;;
1475;SDS011;730;48.870;12.542;2023-11-19T09:10:01;6.40;;;5.70;;
1475;SDS011;730;48.870;12.542;2023-11-19T09:12:27;5.78;;;5.25;;
1475;SDS011;730;48.870;12.542;2023-11-19T09:14:53;5.95;;;5.03;;
1475;SDS011;730;48.870;12.542;2023-11-19T09:17:19;5.47;;;4.97;;
1475;SDS011;730;48.870;12.542;2023-11-19T09:19:45;6.10;;;5.40;;
1475;SDS011;730;48.870;12.542;2023-11-19T09:22:11;7.05;;;5.50;;
1475;SDS011;730;48.870;12.542;2023-11-19T09:24:37;5.47;;;5.05;;
1475;SDS011;730;48.870;12.542;2023-11-19T09:27:04;4.22;;;3.83;;
1475;SDS011;730;48.870;12.542;2023-11-19T09:29:33;5.03;;;4.63;;
1475;SDS011;730;48.870;12.542;2023-11-19T09:31:59;4.85;;;4.32;;
1475;SDS011;730;48.870;12.542;2023-11-19T09:34:26;4.03;;;3.63;;
1475;SDS011;730;48.870;12.542;2023-11-19T09:36:52;4.50;;;4.10;;
1475;SDS011;730;48.870;12.542;2023-11-19T09:39:18;4.95;;;4.50;;
1475;SDS011;730;48.870;12.542;2023-11-19T09:41:44;5.28;;;4.80;;
1475;SDS011;730;48.870;12.542;2023-11-19T09:44:10;4.55;;;4.15;;
1475;SDS011;730;48.870;12.542;2023-11-19T09:46:38;4.88;;;4.47;;
1475;SDS011;730;48.870;12.542;2023-11-19T09:49:06;5.15;;;4.65;;
1475;SDS011;730;48.870;12.542;2023-11-19T09:51:35;5.00;;;4.50;;
1475;SDS011;730;48.870;12.542;2023-11-19T09:54:02;5.15;;;4.40;;
1475;SDS011;730;48.870;12.542;2023-11-19T09:56:28;4.53;;;4.13;;
1475;SDS011;730;48.870;12.542;2023-11-19T09:58:55;4.00;;;3.60;;
1475;SDS011;730;48.870;12.542;2023-11-19T10:01:21;4.47;;;4.07;;
1475;SDS011;730;48.870;12.542;2023-11-19T10:03:48;5.88;;;4.22;;
1475;SDS011;730;48.870;12.542;2023-11-19T10:06:16;4.13;;;3.72;;
1475;SDS011;730;48.870;12.542;2023-11-19T10:08:44;7.82;;;4.25;;
1475;SDS011;730;48.870;12.542;2023-11-19T10:11:10;4.30;;;3.90;;
1475;SDS011;730;48.870;12.542;2023-11-19T10:13:38;3.97;;;3.67;;
1475;SDS011;730;48.870;12.542;2023-11-19T10:16:08;2.80;;;2.60;;
1475;SDS011;730;48.870;12.542;2023-11-19T10:18:34;3.60;;;3.30;;
1475;SDS011;730;48.870;12.542;2023-11-19T10:21:04;3.22;;;2.92;;
1475;SDS011;730;48.870;12.542;2023-11-19T10:23:31;3.42;;;3.13;;
1475;SDS011;730;48.870;12.542;2023-11-19T10:26:12;3.75;;;3.40;;
1475;SDS011;730;48.870;12.542;2023-11-19T10:28:39;3.03;;;2.80;;
1475;SDS011;730;48.870;12.542;2023-11-19T10:31:09;3.50;;;2.65;;
1475;SDS011;730;48.870;12.542;2023-11-19T10:33:35;3.30;;;3.00;;
1475;SDS011;730;48.870;12.542;2023-11-19T10:36:01;2.33;;;2.13;;
1475;SDS011;730;48.870;12.542;2023-11-19T10:38:27;2.45;;;2.25;;
1475;SDS011;730;48.870;12.542;2023-11-19T10:40:54;3.88;;;2.75;;
1475;SDS011;730;48.870;12.542;2023-11-19T10:43:20;2.85;;;2.30;;
1475;SDS011;730;48.870;12.542;2023-11-19T10:45:49;2.40;;;2.20;;
1475;SDS011;730;48.870;12.542;2023-11-19T10:48:15;2.40;;;2.20;;
1475;SDS011;730;48.870;12.542;2023-11-19T10:50:42;2.85;;;2.22;;
1475;SDS011;730;48.870;12.542;2023-11-19T10:53:10;2.20;;;2.00;;
1475;SDS011;730;48.870;12.542;2023-11-19T10:55:40;2.97;;;2.78;;
1475;SDS011;730;48.870;12.542;2023-11-19T10:58:06;3.00;;;2.70;;
1475;SDS011;730;48.870;12.542;2023-11-19T11:00:47;2.90;;;2.30;;
1475;SDS011;730;48.870;12.542;2023-11-19T11:03:24;2.40;;;2.20;;
1475;SDS011;730;48.870;12.542;2023-11-19T11:05:52;2.40;;;2.10;;
1475;SDS011;730;48.870;12.542;2023-11-19T11:08:19;2.10;;;1.90;;
1475;SDS011;730;48.870;12.542;2023-11-19T11:13:13;2.87;;;2.40;;
1475;SDS011;730;48.870;12.542;2023-11-19T11:15:39;3.05;;;2.75;;
1475;SDS011;730;48.870;12.542;2023-11-19T11:18:08;2.95;;;2.70;;
1475;SDS011;730;48.870;12.542;2023-11-19T11:20:35;2.80;;;2.53;;
1475;SDS011;730;48.870;12.542;2023-11-19T11:23:09;3.53;;;1.98;;
1475;SDS011;730;48.870;12.542;2023-11-19T11:28:36;3.05;;;2.22;;
1475;SDS011;730;48.870;12.542;2023-11-19T11:31:29;2.75;;;2.50;;
1475;SDS011;730;48.870;12.542;2023-11-19T11:34:09;2.58;;;2.00;;
1475;SDS011;730;48.870;12.542;2023-11-19T11:37:03;3.95;;;3.60;;
1475;SDS011;730;48.870;12.542;2023-11-19T11:39:33;2.80;;;2.53;;
1475;SDS011;730;48.870;12.542;2023-11-19T11:50:09;3.17;;;2.88;;
1475;SDS011;730;48.870;12.542;2023-11-19T11:58:19;3.58;;;2.78;;
1475;SDS011;730;48.870;12.542;2023-11-19T12:00:51;3.08;;;2.80;;
1475;SDS011;730;48.870;12.542;2023-11-19T12:03:21;3.50;;;3.20;;
1475;SDS011;730;48.870;12.542;2023-11-19T12:05:48;3.40;;;3.10;;
1475;SDS011;730;48.870;12.542;2023-11-19T12:08:15;2.97;;;2.73;;
1475;SDS011;730;48.870;12.542;2023-11-19T12:10:51;3.50;;;3.20;;
1475;SDS011;730;48.870;12.542;2023-11-19T12:13:19;3.30;;;3.00;;
1475;SDS011;730;48.870;12.542;2023-11-19T12:20:55;2.07;;;1.87;;
1475;SDS011;730;48.870;12.542;2023-11-19T12:23:22;3.50;;;3.20;;
1475;SDS011;730;48.870;12.542;2023-11-19T12:25:49;3.93;;;3.63;;
1475;SDS011;730;48.870;12.542;2023-11-19T12:28:15;4.20;;;3.90;;
1475;SDS011;730;48.870;12.542;2023-11-19T12:30:43;3.60;;;3.30;;
1475;SDS011;730;48.870;12.542;2023-11-19T12:33:14;3.70;;;3.40;;
1475;SDS011;730;48.870;12.542;2023-11-19T12:35:43;3.80;;;3.40;;
1475;SDS011;730;48.870;12.542;2023-11-19T12:38:21;3.87;;;3.30;;
1475;SDS011;730;48.870;12.542;2023-11-19T12:41:01;3.90;;;3.60;;
1475;SDS011;730;48.870;12.542;2023-11-19T12:43:32;3.50;;;3.20;;
1475;SDS011;730;48.870;12.542;2023-11-19T12:46:00;4.90;;;4.37;;
1475;SDS011;730;48.870;12.542;2023-11-19T12:48:26;6.13;;;5.53;;
1475;SDS011;730;48.870;12.542;2023-11-19T12:53:25;4.37;;;3.17;;
1475;SDS011;730;48.870;12.542;2023-11-19T12:55:52;7.03;;;3.83;;
1475;SDS011;730;48.870;12.542;2023-11-19T12:58:36;3.40;;;3.10;;
1475;SDS011;730;48.870;12.542;2023-11-19T13:01:05;4.47;;;4.10;;
1475;SDS011;730;48.870;12.542;2023-11-19T13:03:32;3.93;;;3.50;;
1475;SDS011;730;48.870;12.542;2023-11-19T13:06:01;4.50;;;4.10;;
1475;SDS011;730;48.870;12.542;2023-11-19T13:08:40;4.60;;;4.20;;
1475;SDS011;730;48.870;12.542;2023-11-19T13:11:07;4.00;;;3.70;;
1475;SDS011;730;48.870;12.542;2023-11-19T13:16:37;5.60;;;3.90;;
1475;SDS011;730;48.870;12.542;2023-11-19T13:19:04;3.30;;;3.10;;
1475;SDS011;730;48.870;12.542;2023-11-19T13:21:30;2.73;;;2.53;;
1475;SDS011;730;48.870;12.542;2023-11-19T13:23:57;5.10;;;3.70;;
1475;SDS011;730;48.870;12.542;2023-11-19T13:26:23;3.50;;;3.10;;
1475;SDS011;730;48.870;12.542;2023-11-19T13:28:49;3.67;;;2.80;;
1475;SDS011;730;48.870;12.542;2023-11-19T13:31:15;6.77;;;5.37;;
1475;SDS011;730;48.870;12.542;2023-11-19T13:33:41;12.97;;;10.40;;
1475;SDS011;730;48.870;12.542;2023-11-19T13:36:08;12.40;;;11.10;;
1475;SDS011;730;48.870;12.542;2023-11-19T13:38:34;6.43;;;5.77;;
1475;SDS011;730;48.870;12.542;2023-11-19T13:41:04;4.30;;;3.90;;
1475;SDS011;730;48.870;12.542;2023-11-19T13:43:30;4.53;;;4.13;;
1475;SDS011;730;48.870;12.542;2023-11-19T13:45:57;8.23;;;7.50;;
1475;SDS011;730;48.870;12.542;2023-11-19T13:48:24;6.80;;;6.20;;
1475;SDS011;730;48.870;12.542;2023-11-19T13:50:52;6.00;;;3.93;;
1475;SDS011;730;48.870;12.542;2023-11-19T13:53:18;3.13;;;2.80;;
1475;SDS011;730;48.870;12.542;2023-11-19T13:55:44;5.20;;;4.70;;
1475;SDS011;730;48.870;12.542;2023-11-19T13:58:10;5.30;;;4.70;;
1475;SDS011;730;48.870;12.542;2023-11-19T14:00:36;5.03;;;3.60;;
1475;SDS011;730;48.870;12.542;2023-11-19T14:03:03;3.13;;;2.87;;
1475;SDS011;730;48.870;12.542;2023-11-19T14:05:29;2.60;;;2.40;;
1475;SDS011;730;48.870;12.542;2023-11-19T14:07:55;2.93;;;2.30;;
1475;SDS011;730;48.870;12.542;2023-11-19T14:10:22;3.53;;;3.23;;
1475;SDS011;730;48.870;12.542;2023-11-19T14:12:49;7.90;;;7.00;;
1475;SDS011;730;48.870;12.542;2023-11-19T14:15:16;6.33;;;5.73;;
1475;SDS011;730;48.870;12.542;2023-11-19T14:17:42;4.17;;;3.80;;
1475;SDS011;730;48.870;12.542;2023-11-19T14:20:09;3.17;;;2.87;;
1475;SDS011;730;48.870;12.542;2023-11-19T14:22:45;2.00;;;1.80;;
1475;SDS011;730;48.870;12.542;2023-11-19T14:28:50;2.20;;;2.00;;
1475;SDS011;730;48.870;12.542;2023-11-19T14:31:20;2.60;;;2.40;;
1475;SDS011;730;48.870;12.542;2023-11-19T14:33:46;2.80;;;2.60;;
1475;SDS011;730;48.870;12.542;2023-11-19T14:36:13;3.03;;;2.83;;
1475;SDS011;730;48.870;12.542;2023-11-19T14:38:39;3.53;;;3.23;;
1475;SDS011;730;48.870;12.542;2023-11-19T14:41:06;3.20;;;2.90;;
1475;SDS011;730;48.870;12.542;2023-11-19T14:44:10;3.20;;;2.90;;
1475;SDS011;730;48.870;12.542;2023-11-19T14:46:38;2.80;;;2.60;;
1475;SDS011;730;48.870;12.542;2023-11-19T14:49:04;3.43;;;3.07;;
1475;SDS011;730;48.870;12.542;2023-11-19T14:51:31;3.30;;;3.00;;
1475;SDS011;730;48.870;12.542;2023-11-19T14:53:57;3.87;;;3.57;;
1475;SDS011;730;48.870;12.542;2023-11-19T14:56:23;3.83;;;3.53;;
1475;SDS011;730;48.870;12.542;2023-11-19T14:58:50;2.90;;;2.70;;
1475;SDS011;730;48.870;12.542;2023-11-19T15:04:13;4.80;;;4.30;;
1475;SDS011;730;48.870;12.542;2023-11-19T15:06:39;6.83;;;6.23;;
1475;SDS011;730;48.870;12.542;2023-11-19T15:09:06;7.60;;;6.30;;
1475;SDS011;730;48.870;12.542;2023-11-19T15:11:33;11.80;;;10.53;;
1475;SDS011;730;48.870;12.542;2023-11-19T15:13:59;9.10;;;8.17;;
1475;SDS011;730;48.870;12.542;2023-11-19T15:16:26;8.60;;;6.73;;
1475;SDS011;730;48.870;12.542;2023-11-19T15:18:57;8.70;;;6.43;;
1475;SDS011;730;48.870;12.542;2023-11-19T15:21:29;8.83;;;7.47;;
1475;SDS011;730;48.870;12.542;2023-11-19T15:23:55;6.90;;;6.20;;
1475;SDS011;730;48.870;12.542;2023-11-19T15:26:21;6.73;;;6.07;;
1475;SDS011;730;48.870;12.542;2023-11-19T15:28:47;6.00;;;5.50;;
1475;SDS011;730;48.870;12.542;2023-11-19T15:31:14;7.20;;;6.60;;
1475;SDS011;730;48.870;12.542;2023-11-19T15:33:42;7.70;;;7.00;;
1475;SDS011;730;48.870;12.542;2023-11-19T15:36:08;6.67;;;5.93;;
1475;SDS011;730;48.870;12.542;2023-11-19T15:38:34;6.40;;;5.83;;
1475;SDS011;730;48.870;12.542;2023-11-19T15:41:01;5.90;;;5.40;;
1475;SDS011;730;48.870;12.542;2023-11-19T15:43:30;5.70;;;5.27;;
1475;SDS011;730;48.870;12.542;2023-11-19T15:45:57;6.47;;;5.87;;
1475;SDS011;730;48.870;12.542;2023-11-19T15:48:23;5.60;;;5.07;;
1475;SDS011;730;48.870;12.542;2023-11-19T15:50:50;7.30;;;5.90;;